Time;durP1;ratioP1;P1;durP2;ratioP2;P2;SDS_P1;SDS_P2;PMS_P1;PMS_P2;Temp;Humidity;BMP_temperature;BMP_pressure;BME280_temperature;BME280_humidity;BME280_pressure;Samples;Min_cycle;Max_cycle;Signal;HPM_P1;HPM_P2
2022/02/24 00:00:11;;;;;;;9.60;2.45;;;7.60;99.90;;;;;;5098463;28;20123;-67
2022/02/24 00:02:37;;;;;;;11.27;2.47;;;7.50;99.90;;;;;;5067836;28;20075;-67
2022/02/24 00:05:03;;;;;;;7.30;1.80;;;7.50;99.90;;;;;;5071639;28;20068;-67
2022/02/24 00:07:28;;;;;;;11.80;2.67;;;7.50;99.90;;;;;;5068433;28;20115;-67
2022/02/24 00:09:54;;;;;;;14.85;2.40;;;7.60;99.90;;;;;;5069929;28;20049;-67
2022/02/24 00:12:19;;;;;;;12.30;2.78;;;7.50;99.90;;;;;;5054177;28;20047;-67
2022/02/24 00:14:46;;;;;;;13.55;3.28;;;7.60;99.90;;;;;;5066962;28;20055;-67
2022/02/24 00:17:11;;;;;;;12.18;2.80;;;7.60;99.90;;;;;;5069238;28;20036;-67
2022/02/24 00:19:37;;;;;;;13.63;2.67;;;7.50;99.90;;;;;;5074446;28;20054;-67
2022/02/24 00:22:03;;;;;;;11.30;2.28;;;7.60;99.90;;;;;;5069856;28;20106;-67
2022/02/24 00:24:29;;;;;;;13.20;2.97;;;7.60;99.90;;;;;;5065780;28;20036;-67
2022/02/24 00:26:55;;;;;;;10.18;2.63;;;7.60;99.90;;;;;;5073683;28;20040;-67
2022/02/24 00:29:21;;;;;;;16.23;1.98;;;7.60;99.90;;;;;;5087044;28;20510;-67
2022/02/24 00:31:46;;;;;;;13.93;2.30;;;7.60;99.90;;;;;;5072071;28;20118;-67
2022/02/24 00:34:12;;;;;;;11.10;2.00;;;7.60;99.90;;;;;;5069128;28;20044;-67
2022/02/24 00:36:38;;;;;;;8.75;2.20;;;7.60;99.90;;;;;;5052794;28;20044;-67
2022/02/24 00:39:03;;;;;;;11.68;2.20;;;7.60;99.90;;;;;;5066035;28;20419;-67
2022/02/24 00:41:29;;;;;;;12.60;2.55;;;7.60;99.90;;;;;;5069292;28;20044;-67
2022/02/24 00:43:55;;;;;;;13.60;3.05;;;7.60;99.90;;;;;;5071556;28;20047;-67
2022/02/24 00:46:20;;;;;;;9.05;1.85;;;7.60;99.90;;;;;;5071366;28;20127;-67
2022/02/24 00:48:46;;;;;;;17.55;3.17;;;7.60;99.90;;;;;;5069628;28;20055;-67
2022/02/24 00:51:11;;;;;;;13.23;2.88;;;7.60;99.90;;;;;;5068953;28;20561;-67
2022/02/24 00:53:41;;;;;;;9.80;2.13;;;7.60;99.90;;;;;;5065314;28;20047;-67
2022/02/24 00:56:10;;;;;;;9.57;2.20;;;7.60;99.90;;;;;;5068206;28;20044;-66
2022/02/24 00:58:36;;;;;;;10.88;2.05;;;7.60;99.90;;;;;;5068391;28;20045;-67
2022/02/24 01:01:02;;;;;;;9.35;2.25;;;7.60;99.90;;;;;;5070016;28;20040;-66
2022/02/24 01:03:28;;;;;;;11.68;2.13;;;7.60;99.90;;;;;;5093929;28;20495;-66
2022/02/24 01:05:53;;;;;;;9.55;2.30;;;7.60;99.90;;;;;;5068215;28;20047;-67
2022/02/24 01:08:19;;;;;;;8.73;1.70;;;7.60;99.90;;;;;;5065516;28;20032;-67
2022/02/24 01:10:44;;;;;;;11.95;2.38;;;7.50;99.90;;;;;;5067800;28;20557;-67
2022/02/24 01:13:10;;;;;;;10.27;1.80;;;7.60;99.90;;;;;;5063584;28;20048;-66
2022/02/24 01:15:38;;;;;;;11.23;2.33;;;7.50;99.90;;;;;;5064885;28;20067;-67
2022/02/24 01:18:05;;;;;;;13.07;2.00;;;7.50;99.90;;;;;;5065241;28;20040;-66
2022/02/24 01:20:31;;;;;;;9.63;1.77;;;7.50;99.90;;;;;;5068692;28;20071;-66
2022/02/24 01:22:57;;;;;;;11.40;1.90;;;7.50;99.90;;;;;;5075120;28;20063;-67
2022/02/24 01:25:23;;;;;;;12.80;2.05;;;7.50;99.90;;;;;;5068015;28;20448;-67
2022/02/24 01:27:48;;;;;;;9.57;2.47;;;7.50;99.90;;;;;;5069054;28;20077;-66
2022/02/24 01:30:14;;;;;;;9.18;1.52;;;7.50;99.90;;;;;;5068377;28;20036;-66
2022/02/24 01:32:40;;;;;;;8.82;1.65;;;7.40;99.90;;;;;;5094638;28;20040;-67
2022/02/24 01:35:06;;;;;;;8.88;1.40;;;7.50;99.90;;;;;;5067207;28;20033;-67
2022/02/24 01:37:32;;;;;;;11.20;1.92;;;7.50;99.90;;;;;;5065636;28;20040;-67
2022/02/24 01:39:58;;;;;;;7.90;1.60;;;7.50;99.90;;;;;;5084757;28;20530;-67
2022/02/24 01:42:24;;;;;;;10.52;1.90;;;7.50;99.90;;;;;;5070009;28;20126;-66
2022/02/24 01:44:50;;;;;;;10.60;1.67;;;7.50;99.90;;;;;;5064677;28;20039;-67
2022/02/24 01:47:16;;;;;;;7.28;1.15;;;7.50;99.90;;;;;;5067750;28;20040;-66
2022/02/24 01:49:42;;;;;;;7.78;1.30;;;7.50;99.90;;;;;;5095092;28;20043;-66
2022/02/24 01:52:11;;;;;;;11.00;1.85;;;7.40;99.90;;;;;;5065025;28;20131;-66
2022/02/24 01:54:38;;;;;;;10.35;1.55;;;7.50;99.90;;;;;;5062016;28;20048;-66
2022/02/24 01:57:04;;;;;;;11.38;1.67;;;7.50;99.90;;;;;;5065957;28;20064;-67
2022/02/24 01:59:30;;;;;;;9.25;1.50;;;7.40;99.90;;;;;;5064677;28;20041;-66
2022/02/24 02:01:56;;;;;;;6.85;1.30;;;7.50;99.90;;;;;;5065572;28;20123;-66
2022/02/24 02:04:23;;;;;;;8.82;1.40;;;7.40;99.90;;;;;;5067418;28;20116;-66
2022/02/24 02:06:49;;;;;;;10.02;1.52;;;7.40;99.90;;;;;;5066416;28;20059;-67
2022/02/24 02:09:15;;;;;;;11.85;1.70;;;7.40;99.90;;;;;;5061575;28;20486;-67
2022/02/24 02:11:40;;;;;;;9.30;1.98;;;7.40;99.90;;;;;;5065601;28;20108;-66
2022/02/24 02:14:10;;;;;;;12.45;1.70;;;7.40;99.90;;;;;;5055264;28;20048;-67
2022/02/24 02:16:45;;;;;;;9.23;1.33;;;7.40;99.90;;;;;;5054425;28;20088;-66
2022/02/24 02:19:11;;;;;;;9.15;1.52;;;7.40;99.90;;;;;;5071119;28;20505;-66
2022/02/24 02:21:38;;;;;;;8.68;1.67;;;7.30;99.90;;;;;;5068056;28;20080;-67
2022/02/24 02:24:04;;;;;;;11.10;1.73;;;7.40;99.90;;;;;;5067786;28;20051;-66
2022/02/24 02:26:31;;;;;;;13.50;2.45;;;7.40;99.90;;;;;;5068619;28;20041;-67
2022/02/24 02:28:58;;;;;;;6.43;1.45;;;7.40;99.90;;;;;;5070116;28;20398;-67
2022/02/24 02:31:24;;;;;;;14.45;1.27;;;7.40;99.90;;;;;;5071015;28;20045;-67
2022/02/24 02:33:49;;;;;;;10.80;2.30;;;7.30;99.90;;;;;;5070394;28;20368;-67
2022/02/24 02:36:15;;;;;;;11.63;1.90;;;7.30;99.90;;;;;;5070010;28;20029;-67
2022/02/24 02:38:40;;;;;;;11.90;2.35;;;7.40;99.90;;;;;;5072957;28;20037;-67
2022/02/24 02:41:06;;;;;;;8.88;2.00;;;7.30;99.90;;;;;;5074376;28;20071;-67
2022/02/24 02:43:32;;;;;;;8.85;1.40;;;7.40;99.90;;;;;;5070102;28;20044;-67
2022/02/24 02:45:57;;;;;;;8.57;2.08;;;7.40;99.90;;;;;;5069859;28;20036;-67
2022/02/24 02:48:23;;;;;;;9.15;1.92;;;7.30;99.90;;;;;;5069657;28;20048;-67
2022/02/24 02:50:48;;;;;;;9.00;1.70;;;7.30;99.90;;;;;;5069226;28;20045;-67
2022/02/24 02:53:14;;;;;;;10.38;1.70;;;7.30;99.90;;;;;;5071250;28;20071;-67
2022/02/24 02:55:40;;;;;;;10.07;2.13;;;7.30;99.90;;;;;;5070975;28;20051;-67
2022/02/24 02:58:05;;;;;;;15.68;2.00;;;7.30;99.90;;;;;;5071505;28;20692;-66
2022/02/24 03:00:31;;;;;;;12.07;1.67;;;7.30;99.90;;;;;;5071571;28;20044;-67
2022/02/24 03:02:56;;;;;;;10.05;1.40;;;7.30;99.90;;;;;;5096732;28;20048;-67
2022/02/24 03:05:22;;;;;;;6.82;1.63;;;7.30;99.90;;;;;;5071434;28;20048;-66
2022/02/24 03:07:49;;;;;;;10.88;1.63;;;7.30;99.90;;;;;;5069096;28;20419;-67
2022/02/24 03:10:15;;;;;;;12.40;1.58;;;7.20;99.90;;;;;;5071180;28;20210;-67
2022/02/24 03:12:41;;;;;;;14.02;2.42;;;7.30;99.90;;;;;;5068934;28;20078;-66
2022/02/24 03:15:13;;;;;;;7.70;1.23;;;7.30;99.90;;;;;;5095758;28;20513;-66
2022/02/24 03:17:39;;;;;;;7.95;1.42;;;7.30;99.90;;;;;;5081879;28;20048;-67
2022/02/24 03:20:05;;;;;;;9.63;1.58;;;7.30;99.90;;;;;;5065481;28;20403;-67
2022/02/24 03:22:31;;;;;;;13.98;2.10;;;7.30;99.90;;;;;;5070319;28;20040;-67
2022/02/24 03:24:57;;;;;;;10.10;1.52;;;7.30;99.90;;;;;;5070741;28;20420;-67
2022/02/24 03:27:23;;;;;;;10.98;2.97;;;7.30;99.90;;;;;;5069305;28;20082;-67
2022/02/24 03:29:48;;;;;;;9.43;1.45;;;7.20;99.90;;;;;;5069980;28;20512;-67
2022/02/24 03:32:14;;;;;;;12.25;1.70;;;7.30;99.90;;;;;;5069862;28;20040;-67
2022/02/24 03:34:40;;;;;;;8.90;1.25;;;7.30;99.90;;;;;;5069716;28;20041;-67
2022/02/24 03:37:06;;;;;;;8.88;1.45;;;7.30;99.90;;;;;;5071479;28;20040;-67
2022/02/24 03:39:32;;;;;;;10.70;1.60;;;7.20;99.90;;;;;;5069690;28;20596;-67
2022/02/24 03:41:58;;;;;;;11.27;1.60;;;7.20;99.90;;;;;;5067585;28;20051;-67
2022/02/24 03:44:23;;;;;;;11.90;1.60;;;7.20;99.90;;;;;;5071996;28;20033;-67
2022/02/24 03:46:49;;;;;;;9.65;1.75;;;7.20;99.90;;;;;;5071952;28;20040;-67
2022/02/24 03:49:15;;;;;;;8.52;1.90;;;7.10;99.90;;;;;;5077155;28;20119;-67
2022/02/24 03:51:41;;;;;;;5.68;1.10;;;7.20;99.90;;;;;;5070241;28;20050;-67
2022/02/24 03:54:07;;;;;;;13.50;2.13;;;7.10;99.90;;;;;;5070749;28;20032;-66
2022/02/24 03:56:33;;;;;;;7.75;1.40;;;7.20;99.90;;;;;;5069588;28;20402;-67
2022/02/24 03:58:58;;;;;;;5.85;1.42;;;7.20;99.90;;;;;;5089693;28;20040;-67
2022/02/24 04:01:24;;;;;;;11.07;1.75;;;7.10;99.90;;;;;;5067681;28;20045;-67
2022/02/24 04:03:50;;;;;;;13.27;1.70;;;7.10;99.90;;;;;;5069641;28;20036;-67
2022/02/24 04:06:15;;;;;;;14.65;1.65;;;7.10;99.90;;;;;;5075890;28;20114;-67
2022/02/24 04:08:41;;;;;;;11.98;2.67;;;7.10;99.90;;;;;;5076773;28;20044;-67
2022/02/24 04:11:07;;;;;;;10.02;1.92;;;7.10;99.90;;;;;;5070488;28;20081;-67
2022/02/24 04:13:32;;;;;;;8.18;1.52;;;7.10;99.90;;;;;;5070486;28;20048;-67
2022/02/24 04:15:58;;;;;;;10.48;1.67;;;7.10;99.90;;;;;;5068744;28;20032;-67
2022/02/24 04:18:24;;;;;;;10.43;1.73;;;7.10;99.90;;;;;;5071386;28;20091;-66
2022/02/24 04:20:50;;;;;;;9.48;1.50;;;7.10;99.90;;;;;;5050477;28;20056;-67
2022/02/24 04:23:16;;;;;;;12.45;1.90;;;7.20;99.90;;;;;;5067949;28;20048;-67
2022/02/24 04:25:41;;;;;;;12.63;1.85;;;7.10;99.90;;;;;;5069862;28;20032;-67
2022/02/24 04:28:07;;;;;;;12.93;2.00;;;7.20;99.90;;;;;;5068329;28;20380;-67
2022/02/24 04:30:33;;;;;;;12.50;2.15;;;7.20;99.90;;;;;;5068420;28;20043;-66
2022/02/24 04:32:59;;;;;;;13.95;2.45;;;7.20;99.90;;;;;;5069697;28;20049;-67
2022/02/24 04:35:24;;;;;;;9.65;1.73;;;7.10;99.90;;;;;;5068897;28;20046;-67
2022/02/24 04:37:50;;;;;;;7.53;1.52;;;7.20;99.90;;;;;;5070073;28;20067;-67
2022/02/24 04:40:16;;;;;;;14.43;2.85;;;7.20;99.90;;;;;;5071636;28;20043;-67
2022/02/24 04:42:43;;;;;;;13.20;2.30;;;7.20;99.90;;;;;;5070549;28;20076;-67
2022/02/24 04:45:09;;;;;;;10.93;2.35;;;7.20;99.90;;;;;;5070137;28;20039;-67
2022/02/24 04:47:35;;;;;;;7.25;1.75;;;7.20;99.90;;;;;;5068030;28;20040;-67
2022/02/24 04:50:03;;;;;;;9.82;2.97;;;7.20;99.90;;;;;;5067182;28;20045;-67
2022/02/24 04:52:29;;;;;;;7.95;1.80;;;7.20;99.90;;;;;;5068565;28;20049;-67
2022/02/24 04:54:55;;;;;;;8.35;1.52;;;7.20;99.90;;;;;;5068561;28;20037;-67
2022/02/24 04:57:20;;;;;;;9.25;1.60;;;7.20;99.90;;;;;;5070753;28;20036;-67
2022/02/24 04:59:46;;;;;;;12.48;2.28;;;7.10;99.90;;;;;;5068343;28;20048;-67
2022/02/24 05:02:11;;;;;;;9.85;2.20;;;7.10;99.90;;;;;;5070348;28;20051;-68
2022/02/24 05:04:37;;;;;;;6.78;1.77;;;7.10;99.90;;;;;;5088371;28;20044;-67
2022/02/24 05:07:03;;;;;;;11.88;2.83;;;7.10;99.90;;;;;;5068869;28;20040;-67
2022/02/24 05:09:29;;;;;;;11.48;1.85;;;7.00;99.90;;;;;;5066880;28;20036;-67
2022/02/24 05:11:55;;;;;;;10.80;2.25;;;7.10;99.90;;;;;;5065747;28;20044;-67
2022/02/24 05:14:20;;;;;;;8.55;2.17;;;7.10;99.90;;;;;;5070226;28;20093;-67
2022/02/24 05:16:46;;;;;;;8.00;1.35;;;7.00;99.90;;;;;;5070485;28;20047;-67
2022/02/24 05:19:12;;;;;;;15.57;2.60;;;7.10;99.90;;;;;;5068015;28;20075;-67
2022/02/24 05:21:37;;;;;;;11.05;2.20;;;7.10;99.90;;;;;;5067649;28;20073;-67
2022/02/24 05:24:04;;;;;;;9.60;2.78;;;7.10;99.90;;;;;;5067832;28;20036;-67
2022/02/24 05:26:30;;;;;;;11.43;2.20;;;7.10;99.90;;;;;;5066357;28;20131;-68
2022/02/24 05:28:56;;;;;;;12.20;2.60;;;7.10;99.90;;;;;;5070582;28;20032;-67
2022/02/24 05:31:21;;;;;;;10.35;2.47;;;7.10;99.90;;;;;;5067541;28;20047;-68
2022/02/24 05:33:47;;;;;;;8.98;1.83;;;7.00;99.90;;;;;;5069881;28;20097;-67
2022/02/24 05:36:12;;;;;;;12.80;1.98;;;7.10;99.90;;;;;;5067091;28;20647;-67
2022/02/24 05:38:38;;;;;;;7.82;1.65;;;7.20;99.90;;;;;;5064620;28;20040;-67
2022/02/24 05:41:04;;;;;;;16.40;2.25;;;7.10;99.90;;;;;;5095405;28;20063;-67
2022/02/24 05:43:30;;;;;;;9.10;2.03;;;7.10;99.90;;;;;;5067208;28;20111;-66
2022/02/24 05:45:56;;;;;;;9.95;1.88;;;7.10;99.90;;;;;;5087717;28;20086;-67
2022/02/24 05:48:23;;;;;;;13.30;2.72;;;7.20;99.90;;;;;;5069128;28;20395;-67
2022/02/24 05:50:49;;;;;;;10.10;2.25;;;7.20;99.90;;;;;;5068942;28;20059;-67
2022/02/24 05:53:15;;;;;;;7.28;1.90;;;7.20;99.90;;;;;;5050079;28;20044;-67
2022/02/24 05:55:40;;;;;;;8.70;2.42;;;7.20;99.90;;;;;;5070006;28;20036;-67
2022/02/24 05:58:06;;;;;;;9.88;1.92;;;7.20;99.90;;;;;;5067376;28;20032;-66
2022/02/24 06:00:32;;;;;;;8.40;2.17;;;7.30;99.90;;;;;;5067738;28;20056;-67
2022/02/24 06:02:57;;;;;;;13.13;2.15;;;7.30;99.90;;;;;;5065330;28;20036;-66
2022/02/24 06:05:23;;;;;;;9.27;1.35;;;7.20;99.90;;;;;;5066506;28;20044;-66
2022/02/24 06:07:49;;;;;;;11.02;2.72;;;7.20;99.90;;;;;;5070503;28;20131;-66
2022/02/24 06:10:15;;;;;;;10.07;3.30;;;7.20;99.90;;;;;;5083760;28;20037;-67
2022/02/24 06:12:41;;;;;;;7.70;1.88;;;7.20;99.90;;;;;;5065186;28;20043;-66
2022/02/24 06:15:08;;;;;;;12.48;2.40;;;7.20;99.90;;;;;;5063096;28;20623;-66
2022/02/24 06:17:35;;;;;;;7.78;1.35;;;7.20;99.90;;;;;;5045252;28;20064;-67
2022/02/24 06:20:01;;;;;;;9.38;1.88;;;7.20;99.90;;;;;;5065971;28;20438;-67
2022/02/24 06:22:27;;;;;;;10.60;1.90;;;7.20;99.90;;;;;;5065497;28;20135;-67
2022/02/24 06:24:52;;;;;;;10.57;2.10;;;7.20;99.90;;;;;;5068043;28;20127;-67
2022/02/24 06:27:19;;;;;;;11.88;3.05;;;7.20;99.90;;;;;;5067403;28;20033;-67
2022/02/24 06:29:45;;;;;;;10.45;1.92;;;7.20;99.90;;;;;;5065615;28;20051;-67
2022/02/24 06:32:13;;;;;;;8.75;1.95;;;7.20;99.90;;;;;;5063576;28;20118;-67
2022/02/24 06:34:39;;;;;;;14.13;2.60;;;7.20;99.90;;;;;;5068659;28;20437;-67
2022/02/24 06:37:06;;;;;;;11.68;2.17;;;7.20;99.90;;;;;;5064070;28;20491;-67
2022/02/24 06:39:32;;;;;;;11.18;2.60;;;7.20;99.90;;;;;;5065794;28;20627;-67
2022/02/24 06:41:59;;;;;;;12.75;2.08;;;7.20;99.90;;;;;;5065875;28;20033;-68
2022/02/24 06:44:25;;;;;;;11.50;2.67;;;7.20;99.90;;;;;;5065726;28;20376;-67
2022/02/24 06:46:50;;;;;;;9.05;2.20;;;7.20;99.90;;;;;;5048177;28;20043;-68
2022/02/24 06:49:16;;;;;;;13.38;1.90;;;7.20;99.90;;;;;;5065694;28;20047;-68
2022/02/24 06:51:42;;;;;;;9.23;2.30;;;7.20;99.90;;;;;;5066675;28;20068;-67
2022/02/24 06:54:08;;;;;;;10.93;1.88;;;7.20;99.90;;;;;;5061052;28;20072;-67
2022/02/24 06:56:33;;;;;;;9.02;2.22;;;7.30;99.90;;;;;;5064329;28;20090;-68
2022/02/24 06:58:59;;;;;;;8.32;1.88;;;7.20;99.90;;;;;;5063497;28;20037;-67
2022/02/24 07:01:25;;;;;;;10.23;1.95;;;7.20;99.90;;;;;;5069634;28;20036;-67
2022/02/24 07:03:51;;;;;;;10.23;2.10;;;7.30;99.90;;;;;;5069479;28;20522;-67
2022/02/24 07:06:17;;;;;;;11.18;2.53;;;7.30;99.90;;;;;;5068338;28;20094;-67
2022/02/24 07:08:42;;;;;;;12.43;2.47;;;7.30;99.90;;;;;;5071293;28;20495;-67
2022/02/24 07:11:08;;;;;;;9.68;2.17;;;7.40;99.90;;;;;;5069955;28;20044;-68
2022/02/24 07:13:34;;;;;;;11.38;2.08;;;7.40;99.90;;;;;;5067815;28;20498;-67
2022/02/24 07:16:00;;;;;;;14.38;2.00;;;7.40;99.90;;;;;;5070945;28;20066;-68
2022/02/24 07:18:25;;;;;;;9.45;2.08;;;7.30;99.90;;;;;;5068653;28;20044;-67
2022/02/24 07:20:51;;;;;;;12.57;2.85;;;7.40;99.90;;;;;;5068715;28;20033;-68
2022/02/24 07:23:17;;;;;;;9.27;2.08;;;7.40;99.90;;;;;;5069301;28;20032;-68
2022/02/24 07:25:43;;;;;;;8.20;2.42;;;7.40;99.90;;;;;;5070729;28;20102;-68
2022/02/24 07:28:09;;;;;;;10.50;2.20;;;7.40;99.90;;;;;;5071405;28;20101;-68
2022/02/24 07:30:38;;;;;;;10.65;2.20;;;7.40;99.90;;;;;;5068509;28;20040;-68
2022/02/24 07:33:04;;;;;;;11.60;2.30;;;7.40;99.90;;;;;;5070276;28;20075;-67
2022/02/24 07:35:30;;;;;;;15.95;2.35;;;7.50;99.90;;;;;;5070166;28;20101;-66
2022/02/24 07:37:56;;;;;;;10.68;3.25;;;7.50;99.90;;;;;;5066861;28;20036;-68
2022/02/24 07:40:21;;;;;;;12.77;2.25;;;7.50;99.90;;;;;;5070257;28;20064;-68
2022/02/24 07:42:47;;;;;;;12.20;2.38;;;7.50;99.90;;;;;;5072205;28;20043;-67
2022/02/24 07:45:13;;;;;;;13.05;2.20;;;7.50;99.90;;;;;;5069035;28;20036;-67
2022/02/24 07:47:39;;;;;;;12.10;1.90;;;7.50;99.90;;;;;;5068541;28;20415;-67
2022/02/24 07:50:06;;;;;;;9.07;2.08;;;7.50;99.90;;;;;;5068327;28;20054;-68
2022/02/24 07:52:32;;;;;;;13.05;2.78;;;7.60;99.90;;;;;;5068468;28;20148;-68
2022/02/24 07:54:58;;;;;;;14.32;1.90;;;7.60;99.90;;;;;;5068542;28;20159;-67
2022/02/24 07:57:24;;;;;;;12.32;2.80;;;7.60;99.90;;;;;;5070331;28;20052;-68
2022/02/24 07:59:49;;;;;;;10.15;2.17;;;7.70;99.90;;;;;;5070285;28;20054;-66
2022/02/24 08:02:15;;;;;;;9.00;2.33;;;7.70;99.90;;;;;;5069453;28;20051;-67
2022/02/24 08:04:40;;;;;;;6.97;1.98;;;7.70;99.90;;;;;;5069196;28;20112;-67
2022/02/24 08:07:07;;;;;;;12.85;3.00;;;7.70;99.90;;;;;;5070225;28;20041;-67
2022/02/24 08:09:34;;;;;;;12.05;2.38;;;7.80;99.90;;;;;;5068157;28;20391;-67
2022/02/24 08:14:44;;;;;;;11.70;2.10;;;7.80;99.90;;;;;;5069372;28;20178;-68
2022/02/24 08:17:10;;;;;;;16.17;2.45;;;7.90;99.90;;;;;;5064620;28;20123;-67
2022/02/24 08:19:36;;;;;;;7.07;1.73;;;8.00;99.90;;;;;;5066019;28;20036;-67
2022/02/24 08:22:02;;;;;;;10.07;2.58;;;8.10;99.90;;;;;;5097647;28;20078;-67
2022/02/24 08:24:32;;;;;;;8.05;1.70;;;8.10;99.90;;;;;;5067703;28;20059;-67
2022/02/24 08:26:58;;;;;;;13.48;3.83;;;8.20;99.90;;;;;;5083954;28;20072;-67
2022/02/24 08:29:24;;;;;;;12.52;1.92;;;8.20;99.90;;;;;;5067057;28;20036;-67
2022/02/24 08:31:50;;;;;;;8.75;1.85;;;8.30;99.90;;;;;;5069663;28;20041;-67
2022/02/24 08:34:16;;;;;;;9.43;2.28;;;8.30;99.90;;;;;;5067694;28;20359;-67
2022/02/24 08:36:41;;;;;;;11.77;2.40;;;8.30;99.90;;;;;;5067039;28;20074;-67
2022/02/24 08:39:08;;;;;;;10.38;2.08;;;8.40;99.90;;;;;;5070050;28;20036;-67
2022/02/24 08:41:35;;;;;;;9.15;2.20;;;8.50;99.90;;;;;;5064095;28;20040;-67
2022/02/24 08:44:00;;;;;;;13.10;3.25;;;8.50;99.90;;;;;;5070166;28;20032;-67
2022/02/24 08:46:26;;;;;;;18.00;2.63;;;8.60;99.90;;;;;;5070637;28;20046;-67
2022/02/24 08:48:51;;;;;;;8.02;3.15;;;8.60;99.90;;;;;;5070046;28;20111;-67
2022/02/24 08:51:17;;;;;;;11.10;4.03;;;8.60;99.90;;;;;;5070279;28;20059;-67
2022/02/24 08:53:43;;;;;;;20.27;3.25;;;8.70;99.90;;;;;;5069005;28;20106;-67
2022/02/24 08:56:08;;;;;;;17.77;2.80;;;8.60;99.90;;;;;;5066907;28;20184;-67
2022/02/24 08:58:34;;;;;;;12.63;2.88;;;8.70;99.90;;;;;;5068298;28;20131;-67
2022/02/24 09:01:00;;;;;;;17.13;3.63;;;8.60;99.90;;;;;;5067963;28;20037;-67
2022/02/24 09:03:28;;;;;;;12.48;3.05;;;8.70;99.90;;;;;;5068270;28;20040;-67
2022/02/24 09:05:53;;;;;;;8.63;2.22;;;8.70;99.90;;;;;;5069048;28;20119;-66
2022/02/24 09:08:19;;;;;;;7.80;1.90;;;8.80;99.90;;;;;;5068044;28;20035;-67
2022/02/24 09:10:45;;;;;;;12.02;2.95;;;8.80;99.90;;;;;;5069553;28;20051;-66
2022/02/24 09:13:10;;;;;;;14.07;3.72;;;8.80;99.90;;;;;;5070609;28;20077;-66
2022/02/24 09:15:37;;;;;;;12.23;2.25;;;8.90;99.90;;;;;;5068152;28;20348;-66
2022/02/24 09:18:08;;;;;;;15.93;2.72;;;8.90;99.90;;;;;;5060375;28;20052;-66
2022/02/24 09:20:36;;;;;;;11.07;2.80;;;8.90;99.90;;;;;;5067246;28;20098;-66
2022/02/24 09:23:01;;;;;;;10.52;2.50;;;8.80;99.90;;;;;;5062553;28;20480;-66
2022/02/24 09:25:27;;;;;;;10.25;2.75;;;8.80;99.90;;;;;;5060991;28;20082;-66
2022/02/24 09:27:53;;;;;;;11.82;2.70;;;8.80;99.90;;;;;;5064650;28;20037;-66
2022/02/24 09:30:19;;;;;;;7.57;2.03;;;8.80;99.90;;;;;;5066467;28;20043;-66
2022/02/24 09:32:46;;;;;;;9.45;2.05;;;8.90;99.90;;;;;;5060194;28;20041;-66
2022/02/24 09:35:13;;;;;;;13.95;2.15;;;8.80;99.90;;;;;;5042583;28;20571;-67
2022/02/24 09:37:39;;;;;;;10.52;2.72;;;8.90;99.90;;;;;;5065501;28;20040;-67
2022/02/24 09:40:08;;;;;;;11.15;2.45;;;8.80;99.90;;;;;;5066726;28;20029;-67
2022/02/24 09:42:34;;;;;;;12.82;2.63;;;8.80;99.90;;;;;;5063824;28;20500;-67
2022/02/24 09:45:00;;;;;;;15.38;2.15;;;8.90;99.90;;;;;;5061125;28;20044;-67
2022/02/24 09:47:28;;;;;;;11.13;2.45;;;9.00;99.90;;;;;;5084104;28;20105;-66
2022/02/24 09:49:57;;;;;;;9.55;2.17;;;9.10;99.90;;;;;;5068355;28;20041;-67
2022/02/24 09:52:23;;;;;;;13.65;2.17;;;9.10;99.90;;;;;;5070052;28;20067;-67
2022/02/24 09:54:49;;;;;;;11.93;2.33;;;9.20;99.90;;;;;;5071225;28;20458;-66
2022/02/24 09:57:15;;;;;;;10.93;1.42;;;9.20;99.90;;;;;;5067957;28;20058;-66
2022/02/24 09:59:40;;;;;;;10.68;2.05;;;9.20;99.90;;;;;;5068596;28;20048;-67
2022/02/24 10:02:08;;;;;;;12.98;2.38;;;9.10;99.90;;;;;;5069781;28;20170;-67
2022/02/24 10:04:34;;;;;;;12.38;2.60;;;9.10;99.90;;;;;;5070749;28;20075;-67
2022/02/24 10:07:00;;;;;;;8.02;2.03;;;9.00;99.90;;;;;;5068320;28;20068;-67
2022/02/24 10:09:31;;;;;;;5.70;1.38;;;9.10;99.90;;;;;;5068021;28;20405;-67
2022/02/24 10:12:10;;;;;;;6.78;1.80;;;9.10;99.90;;;;;;5052570;28;20044;-67
2022/02/24 10:14:37;;;;;;;9.35;1.40;;;9.20;99.90;;;;;;5064726;28;20044;-67
2022/02/24 10:17:05;;;;;;;6.10;1.65;;;9.20;99.90;;;;;;5063762;28;20538;-67
2022/02/24 10:19:43;;;;;;;7.25;1.55;;;9.20;99.90;;;;;;5066594;28;20045;-67
2022/02/24 10:22:19;;;;;;;10.23;2.45;;;9.20;99.90;;;;;;5067992;28;20049;-67
2022/02/24 10:24:59;;;;;;;8.52;1.58;;;9.40;99.90;;;;;;5068763;28;20046;-67
2022/02/24 10:27:35;;;;;;;10.98;1.88;;;9.40;99.90;;;;;;5068519;28;20628;-67
2022/02/24 10:30:05;;;;;;;9.80;2.22;;;9.40;99.90;;;;;;5070287;28;20074;-67
2022/02/24 10:32:38;;;;;;;13.00;2.13;;;9.40;99.90;;;;;;5065012;28;20134;-67
2022/02/24 10:35:34;;;;;;;6.07;1.70;;;9.50;99.90;;;;;;5096304;28;20045;-67
2022/02/24 10:38:04;;;;;;;10.13;2.33;;;9.50;99.90;;;;;;5085621;28;20061;-67
2022/02/24 10:40:47;;;;;;;7.38;1.33;;;9.50;99.90;;;;;;5069165;28;20387;-67
2022/02/24 10:43:17;;;;;;;9.73;1.75;;;9.60;99.90;;;;;;5069311;28;20094;-67
2022/02/24 10:45:56;;;;;;;8.57;1.90;;;9.70;99.90;;;;;;5068500;28;20037;-67
2022/02/24 10:48:22;;;;;;;13.82;2.63;;;9.80;99.90;;;;;;5068536;28;20032;-67
2022/02/24 10:50:55;;;;;;;7.05;1.33;;;9.80;99.90;;;;;;5067553;28;20037;-67
2022/02/24 10:53:24;;;;;;;12.13;1.60;;;9.90;99.90;;;;;;5069459;28;20101;-67
2022/02/24 10:56:09;;;;;;;10.65;2.08;;;10.00;99.90;;;;;;5067326;28;20044;-67
2022/02/24 10:58:45;;;;;;;7.30;2.00;;;10.00;99.90;;;;;;5069490;28;20040;-67
2022/02/24 11:01:12;;;;;;;;;;;10.10;99.90;;;;;;5069491;28;20047;-67
2022/02/24 11:03:42;;;;;;;9.52;1.55;;;10.10;99.90;;;;;;5066807;28;20011;-67
2022/02/24 11:06:09;;;;;;;6.85;1.60;;;10.20;99.90;;;;;;5067552;28;20037;-67
2022/02/24 11:08:35;;;;;;;7.03;1.55;;;10.40;99.90;;;;;;5070179;28;20078;-67
2022/02/24 11:11:02;;;;;;;5.40;1.25;;;10.60;99.90;;;;;;5064299;28;20045;-67
2022/02/24 11:13:29;;;;;;;9.25;1.73;;;10.70;99.90;;;;;;5083653;28;20044;-67
2022/02/24 11:15:56;;;;;;;8.75;1.83;;;10.50;99.90;;;;;;5068866;28;20498;-66
2022/02/24 11:18:23;;;;;;;8.45;1.60;;;10.50;99.90;;;;;;5069164;28;20078;-67
2022/02/24 11:20:49;;;;;;;8.05;1.67;;;10.40;99.90;;;;;;5072392;28;20036;-67
2022/02/24 11:23:15;;;;;;;9.48;1.67;;;10.50;99.90;;;;;;5068888;28;20044;-67
2022/02/24 11:26:02;;;;;;;9.10;2.80;;;10.40;99.90;;;;;;5072538;28;20949;-67
2022/02/24 11:28:33;;;;;;;8.50;1.55;;;10.50;99.90;;;;;;5069882;28;20032;-67
2022/02/24 11:31:09;;;;;;;11.65;2.30;;;10.60;99.90;;;;;;5070224;28;20041;-67
2022/02/24 11:33:35;;;;;;;11.05;2.40;;;10.50;99.90;;;;;;5070842;28;20056;-67
2022/02/24 11:36:16;;;;;;;8.10;1.60;;;10.50;99.90;;;;;;5071061;28;20120;-67
2022/02/24 11:39:02;;;;;;;7.28;1.77;;;10.50;99.90;;;;;;5068011;28;20103;-66
2022/02/24 11:41:28;;;;;;;11.38;1.65;;;10.30;99.90;;;;;;5072055;28;20052;-67
2022/02/24 11:43:54;;;;;;;6.47;1.60;;;10.20;99.90;;;;;;5073917;28;20040;-67
2022/02/24 11:46:20;;;;;;;8.43;1.13;;;10.10;99.90;;;;;;5068395;28;20162;-67
2022/02/24 11:48:46;;;;;;;7.22;1.48;;;10.10;99.90;;;;;;5072101;28;20123;-67
2022/02/24 11:51:19;;;;;;;8.27;2.05;;;10.00;99.90;;;;;;5071375;28;20486;-67
2022/02/24 11:53:48;;;;;;;7.43;1.58;;;10.00;99.90;;;;;;5065356;28;20044;-67
2022/02/24 11:56:17;;;;;;;8.90;1.88;;;9.90;99.90;;;;;;5068715;28;20178;-67
2022/02/24 11:58:59;;;;;;;8.45;1.25;;;9.90;99.90;;;;;;5070212;28;20048;-67
2022/02/24 12:01:41;;;;;;;5.45;1.45;;;10.00;99.90;;;;;;5066887;28;20119;-67
2022/02/24 12:04:23;;;;;;;7.18;1.73;;;10.00;99.90;;;;;;5067797;28;20454;-67
2022/02/24 12:06:50;;;;;;;5.35;1.75;;;9.90;99.90;;;;;;5069911;28;20040;-67
2022/02/24 12:09:15;;;;;;;8.32;1.73;;;10.00;99.90;;;;;;5071536;28;20052;-67
2022/02/24 12:11:52;;;;;;;9.18;1.10;;;10.00;99.90;;;;;;5069175;28;20032;-67
2022/02/24 12:14:21;;;;;;;6.50;1.42;;;10.00;99.90;;;;;;5071798;28;20036;-67
2022/02/24 12:17:08;;;;;;;7.13;1.35;;;10.00;99.90;;;;;;5067892;28;20365;-67
2022/02/24 12:19:58;;;;;;;8.70;1.38;;;10.00;99.90;;;;;;5097189;28;20072;-67
2022/02/24 12:22:40;;;;;;;13.95;2.08;;;10.00;99.90;;;;;;5068113;28;20052;-67
2022/02/24 12:25:24;;;;;;;4.63;1.33;;;9.90;99.90;;;;;;5065839;28;20455;-67
2022/02/24 12:28:08;;;;;;;8.95;2.88;;;9.90;99.90;;;;;;5069518;28;20032;-67
2022/02/24 12:30:37;;;;;;;9.38;1.40;;;9.90;99.90;;;;;;5065924;27;20490;-67
2022/02/24 12:33:04;;;;;;;4.88;1.23;;;9.90;99.90;;;;;;5065021;28;20047;-67
2022/02/24 12:35:38;;;;;;;6.50;1.30;;;9.80;99.90;;;;;;5067335;28;20182;-67
2022/02/24 12:38:05;;;;;;;10.95;2.00;;;9.70;99.90;;;;;;5065979;28;20048;-67
2022/02/24 12:40:38;;;;;;;10.75;2.00;;;9.70;99.90;;;;;;5069169;28;20064;-67
2022/02/24 12:43:06;;;;;;;9.30;1.85;;;9.70;99.90;;;;;;5068628;28;20411;-67
2022/02/24 12:45:32;;;;;;;9.32;1.70;;;9.60;99.90;;;;;;5069928;28;20830;-67
2022/02/24 12:48:00;;;;;;;5.78;1.10;;;9.70;99.90;;;;;;5064817;28;20083;-67
2022/02/24 12:50:36;;;;;;;11.95;1.80;;;9.60;99.90;;;;;;5065090;28;20041;-67
2022/02/24 12:53:07;;;;;;;8.15;1.15;;;9.60;99.90;;;;;;5064006;28;20043;-67